Time;durP1;ratioP1;P1;durP2;ratioP2;P2;SDS_P1;SDS_P2;PMS_P1;PMS_P2;Temp;Humidity;BMP_temperature;BMP_pressure;BME280_temperature;BME280_humidity;BME280_pressure;Samples;Min_cycle;Max_cycle;Signal;HPM_P1;HPM_P2
2022/09/22 00:00:12;;;;;;;;;17.67;17.00;;;;;;;;4922393;28;45159;-68
2022/09/22 00:02:37;;;;;;;;;19.67;16.67;;;;;;;;4922129;28;45431;-68
2022/09/22 00:05:02;;;;;;;;;19.67;18.00;;;;;;;;4921800;28;45315;-68
2022/09/22 00:07:28;;;;;;;;;20.33;20.00;;;;;;;;4922113;28;45541;-68
2022/09/22 00:09:53;;;;;;;;;20.00;17.00;;;;;;;;4922146;28;45361;-68
2022/09/22 00:12:18;;;;;;;;;16.00;13.33;;;;;;;;4922418;28;45409;-68
2022/09/22 00:14:44;;;;;;;;;20.33;18.33;;;;;;;;4922351;28;45539;-68
2022/09/22 00:17:10;;;;;;;;;16.33;15.00;;;;;;;;4921774;28;46340;-68
2022/09/22 00:19:36;;;;;;;;;19.00;17.67;;;;;;;;4921925;28;45306;-68
2022/09/22 00:22:02;;;;;;;;;21.00;18.00;;;;;;;;4921705;28;45527;-68
2022/09/22 00:24:27;;;;;;;;;18.33;17.00;;;;;;;;4922118;28;45432;-68
2022/09/22 00:26:56;;;;;;;;;19.00;17.67;;;;;;;;4921535;28;46318;-68
2022/09/22 00:29:22;;;;;;;;;19.00;18.00;;;;;;;;4921472;28;45298;-68
2022/09/22 00:31:48;;;;;;;;;22.00;20.00;;;;;;;;4921885;28;45421;-68
2022/09/22 00:34:14;;;;;;;;;26.33;25.00;;;;;;;;4921906;28;45262;-68
2022/09/22 00:36:40;;;;;;;;;24.33;19.33;;;;;;;;4921442;28;46464;-68
2022/09/22 00:39:05;;;;;;;;;25.67;19.33;;;;;;;;4921413;28;45299;-68
2022/09/22 00:41:35;;;;;;;;;18.00;18.00;;;;;;;;4921537;28;45415;-68
2022/09/22 00:44:19;;;;;;;;;21.67;17.67;;;;;;;;4921805;28;45653;-68
2022/09/22 00:46:46;;;;;;;;;15.33;15.33;;;;;;;;4921470;28;46312;-68
2022/09/22 00:49:13;;;;;;;;;19.67;19.67;;;;;;;;4921497;28;45332;-68
2022/09/22 00:51:40;;;;;;;;;19.67;18.00;;;;;;;;4921197;28;45319;-68
2022/09/22 00:54:07;;;;;;;;;25.00;17.67;;;;;;;;4920705;28;45481;-68
2022/09/22 00:56:36;;;;;;;;;22.33;21.33;;;;;;;;4904052;28;46450;-67
2022/09/22 00:59:04;;;;;;;;;21.33;19.00;;;;;;;;4921418;28;45350;-68
2022/09/22 01:01:29;;;;;;;;;21.00;18.00;;;;;;;;4921384;28;45356;-68
2022/09/22 01:03:55;;;;;;;;;28.67;24.33;;;;;;;;4921279;28;45541;-68
2022/09/22 01:06:23;;;;;;;;;20.33;19.33;;;;;;;;4919645;28;46618;-68
2022/09/22 01:08:49;;;;;;;;;21.67;20.67;;;;;;;;4920989;28;45268;-68
2022/09/22 01:11:17;;;;;;;;;22.67;19.00;;;;;;;;4921175;28;45323;-68
2022/09/22 01:13:59;;;;;;;;;21.33;19.33;;;;;;;;4921269;28;45492;-68
2022/09/22 01:16:33;;;;;;;;;21.33;17.00;;;;;;;;4920756;28;46359;-68
2022/09/22 01:19:16;;;;;;;;;24.00;21.00;;;;;;;;4920835;28;45448;-67
2022/09/22 01:21:46;;;;;;;;;22.67;20.00;;;;;;;;4920727;28;45310;-67
2022/09/22 01:24:24;;;;;;;;;23.00;21.67;;;;;;;;4921198;28;45363;-68
2022/09/22 01:27:03;;;;;;;;;18.67;18.67;;;;;;;;4920598;28;47600;-67
2022/09/22 01:29:32;;;;;;;;;24.33;22.00;;;;;;;;4920846;28;45392;-68
2022/09/22 01:32:00;;;;;;;;;25.67;23.67;;;;;;;;4920930;28;45473;-68
2022/09/22 01:34:25;;;;;;;;;25.00;22.33;;;;;;;;4921143;28;45253;-68
2022/09/22 01:37:03;;;;;;;;;20.00;20.00;;;;;;;;4920467;28;45632;-68
2022/09/22 01:39:33;;;;;;;;;27.00;23.67;;;;;;;;4920690;28;45345;-68
2022/09/22 01:42:04;;;;;;;;;25.67;22.33;;;;;;;;4920349;28;45429;-68
2022/09/22 01:44:46;;;;;;;;;22.33;22.33;;;;;;;;4920907;28;45362;-68
2022/09/22 01:47:14;;;;;;;;;28.67;22.33;;;;;;;;4920479;28;46098;-68
2022/09/22 01:49:43;;;;;;;;;22.33;20.67;;;;;;;;4920265;28;45373;-68
2022/09/22 01:52:12;;;;;;;;;21.67;21.00;;;;;;;;4920573;28;45359;-68
2022/09/22 01:54:44;;;;;;;;;21.33;16.00;;;;;;;;4903524;28;45481;-68
2022/09/22 01:57:13;;;;;;;;;24.00;21.00;;;;;;;;4920223;28;46630;-68
2022/09/22 01:59:41;;;;;;;;;29.33;24.00;;;;;;;;4920416;28;45243;-68
2022/09/22 02:02:12;;;;;;;;;23.67;22.33;;;;;;;;4920439;28;45520;-68
2022/09/22 02:04:44;;;;;;;;;28.33;26.33;;;;;;;;4920086;28;45532;-68
2022/09/22 02:07:29;;;;;;;;;25.67;22.00;;;;;;;;4920137;28;47064;-68
2022/09/22 02:09:57;;;;;;;;;22.00;21.00;;;;;;;;4919432;28;45330;-68
2022/09/22 02:12:22;;;;;;;;;22.67;20.33;;;;;;;;4920392;28;45753;-68
2022/09/22 02:14:48;;;;;;;;;27.67;22.00;;;;;;;;4920135;28;45238;-68
2022/09/22 02:17:14;;;;;;;;;21.33;20.67;;;;;;;;4920205;28;46815;-68
2022/09/22 02:19:40;;;;;;;;;24.33;22.00;;;;;;;;4920099;28;45384;-68
2022/09/22 02:22:06;;;;;;;;;22.67;22.00;;;;;;;;4920019;28;45306;-68
2022/09/22 02:24:34;;;;;;;;;22.00;19.33;;;;;;;;4920364;28;45713;-68
2022/09/22 02:27:05;;;;;;;;;22.67;18.00;;;;;;;;4919870;28;45368;-68
2022/09/22 02:29:33;;;;;;;;;25.00;20.00;;;;;;;;4919823;28;45372;-68
2022/09/22 02:32:00;;;;;;;;;27.33;24.67;;;;;;;;4920003;28;45269;-68
2022/09/22 02:34:26;;;;;;;;;26.67;24.00;;;;;;;;4920072;28;45345;-68
2022/09/22 02:36:58;;;;;;;;;26.00;22.67;;;;;;;;4919508;28;47624;-68
2022/09/22 02:39:23;;;;;;;;;16.67;16.67;;;;;;;;4919693;28;45456;-68
2022/09/22 02:41:51;;;;;;;;;23.33;21.00;;;;;;;;4920068;28;45531;-68
2022/09/22 02:44:20;;;;;;;;;23.33;18.00;;;;;;;;4920055;28;45384;-68
2022/09/22 02:46:49;;;;;;;;;22.67;21.00;;;;;;;;4919260;28;46750;-68
2022/09/22 02:49:16;;;;;;;;;22.00;19.33;;;;;;;;4919731;28;45397;-68
2022/09/22 02:51:41;;;;;;;;;24.00;22.00;;;;;;;;4919611;28;45309;-68
2022/09/22 02:54:06;;;;;;;;;21.00;20.00;;;;;;;;4919989;28;45424;-68
2022/09/22 02:56:32;;;;;;;;;22.33;19.00;;;;;;;;4919759;28;46484;-68
2022/09/22 02:58:57;;;;;;;;;19.00;19.00;;;;;;;;4919581;28;45520;-68
2022/09/22 03:01:22;;;;;;;;;25.00;21.67;;;;;;;;4919935;28;45375;-68
2022/09/22 03:03:47;;;;;;;;;24.33;24.33;;;;;;;;4919953;28;45484;-68
2022/09/22 03:06:13;;;;;;;;;24.00;22.33;;;;;;;;4918910;28;46088;-68
2022/09/22 03:08:38;;;;;;;;;22.00;19.67;;;;;;;;4919752;28;45425;-68
2022/09/22 03:11:03;;;;;;;;;23.67;20.67;;;;;;;;4919758;28;45699;-68
2022/09/22 03:13:29;;;;;;;;;22.00;18.33;;;;;;;;4919875;28;45380;-68
2022/09/22 03:15:54;;;;;;;;;28.00;26.00;;;;;;;;4919172;28;46627;-68
2022/09/22 03:18:19;;;;;;;;;23.33;19.33;;;;;;;;4921802;28;45371;-68
2022/09/22 03:20:44;;;;;;;;;27.67;26.33;;;;;;;;4923053;28;45223;-68
2022/09/22 03:23:10;;;;;;;;;25.00;21.33;;;;;;;;4922667;28;45451;-68
2022/09/22 03:25:35;;;;;;;;;19.33;17.67;;;;;;;;4922258;28;46133;-68
2022/09/22 03:28:00;;;;;;;;;28.00;23.67;;;;;;;;4922631;28;45241;-68
2022/09/22 03:30:25;;;;;;;;;25.00;19.00;;;;;;;;4922791;28;45350;-68
2022/09/22 03:32:51;;;;;;;;;23.00;20.33;;;;;;;;4922840;28;45218;-68
2022/09/22 03:35:16;;;;;;;;;18.00;17.00;;;;;;;;4922426;28;45404;-68
2022/09/22 03:37:41;;;;;;;;;24.00;22.33;;;;;;;;4922531;28;45403;-68
2022/09/22 03:40:06;;;;;;;;;25.33;24.33;;;;;;;;4922597;28;45426;-68
2022/09/22 03:42:33;;;;;;;;;29.00;26.00;;;;;;;;4922805;28;45360;-68
2022/09/22 03:44:58;;;;;;;;;27.67;24.67;;;;;;;;4922424;28;45454;-68
2022/09/22 03:47:23;;;;;;;;;27.33;23.33;;;;;;;;4922477;28;45483;-68
2022/09/22 03:49:49;;;;;;;;;30.67;30.33;;;;;;;;4922360;28;45380;-68
2022/09/22 03:52:14;;;;;;;;;22.00;21.67;;;;;;;;4922350;28;45492;-68
2022/09/22 03:54:39;;;;;;;;;23.33;17.67;;;;;;;;4922410;28;46194;-68
2022/09/22 03:57:05;;;;;;;;;29.67;27.00;;;;;;;;4922153;28;45513;-68
2022/09/22 03:59:30;;;;;;;;;28.33;25.33;;;;;;;;4922342;28;45360;-68
2022/09/22 04:01:55;;;;;;;;;34.00;26.67;;;;;;;;4922563;28;45444;-68
2022/09/22 04:04:21;;;;;;;;;28.33;25.00;;;;;;;;4921934;28;46543;-68
2022/09/22 04:06:46;;;;;;;;;29.67;25.00;;;;;;;;4921985;28;45449;-68
2022/09/22 04:09:11;;;;;;;;;28.67;26.33;;;;;;;;4922292;28;45325;-67
2022/09/22 04:11:36;;;;;;;;;25.67;23.33;;;;;;;;4922085;28;45331;-68
2022/09/22 04:14:03;;;;;;;;;25.67;22.00;;;;;;;;4922140;28;45352;-68
2022/09/22 04:16:29;;;;;;;;;24.33;20.67;;;;;;;;4921884;28;45456;-68
2022/09/22 04:18:54;;;;;;;;;25.67;23.00;;;;;;;;4921940;28;45282;-68
2022/09/22 04:21:19;;;;;;;;;20.67;20.33;;;;;;;;4921950;28;45386;-67
2022/09/22 04:23:45;;;;;;;;;25.00;24.67;;;;;;;;4921371;28;45799;-68
2022/09/22 04:26:10;;;;;;;;;26.33;25.00;;;;;;;;4921729;28;45538;-68
2022/09/22 04:28:35;;;;;;;;;21.00;18.00;;;;;;;;4921815;28;45202;-68
2022/09/22 04:31:00;;;;;;;;;52.00;42.50;;;;;;;;4921906;28;45350;-68
2022/09/22 04:33:25;;;;;;;;;34.67;32.00;;;;;;;;4921549;28;45491;-68
2022/09/22 04:35:51;;;;;;;;;30.67;25.67;;;;;;;;4921588;28;45398;-68
2022/09/22 04:38:17;;;;;;;;;22.67;20.33;;;;;;;;4921829;28;45215;-68
2022/09/22 04:40:42;;;;;;;;;27.00;24.67;;;;;;;;4921800;28;45155;-67
2022/09/22 04:43:07;;;;;;;;;27.00;23.00;;;;;;;;4921356;28;47329;-68
2022/09/22 04:45:32;;;;;;;;;24.33;22.00;;;;;;;;4921415;28;45488;-68
2022/09/22 04:47:58;;;;;;;;;26.67;23.33;;;;;;;;4921659;28;45284;-68
2022/09/22 04:50:23;;;;;;;;;23.33;23.33;;;;;;;;4921990;28;45146;-67
2022/09/22 04:52:50;;;;;;;;;24.67;21.67;;;;;;;;4921109;28;47397;-67
2022/09/22 04:55:16;;;;;;;;;18.33;16.67;;;;;;;;4921225;28;45411;-68
2022/09/22 04:57:41;;;;;;;;;24.00;22.00;;;;;;;;4921419;28;45437;-68
2022/09/22 05:00:07;;;;;;;;;24.33;23.33;;;;;;;;4921217;28;45425;-68
2022/09/22 05:02:33;;;;;;;;;31.33;28.00;;;;;;;;4921214;28;46524;-68
2022/09/22 05:04:58;;;;;;;;;26.00;24.67;;;;;;;;4921132;28;45707;-68
2022/09/22 05:07:23;;;;;;;;;29.67;24.67;;;;;;;;4921093;28;45446;-68
2022/09/22 05:09:49;;;;;;;;;24.00;22.67;;;;;;;;4904359;28;45591;-68
2022/09/22 05:12:14;;;;;;;;;24.33;22.33;;;;;;;;4904145;28;46209;-68
2022/09/22 05:14:39;;;;;;;;;27.33;25.00;;;;;;;;4920853;28;45770;-68
2022/09/22 05:17:05;;;;;;;;;27.67;23.00;;;;;;;;4921268;28;45313;-67
2022/09/22 05:19:31;;;;;;;;;29.33;24.00;;;;;;;;4921194;28;45439;-67
2022/09/22 05:21:56;;;;;;;;;25.67;24.00;;;;;;;;4920671;28;46344;-66
2022/09/22 05:24:21;;;;;;;;;31.33;26.00;;;;;;;;4920921;28;45438;-66
2022/09/22 05:26:47;;;;;;;;;72.75;58.50;;;;;;;;4920758;28;45235;-66
2022/09/22 05:29:12;;;;;;;;;52.67;42.33;;;;;;;;4920964;28;45473;-67
2022/09/22 05:31:37;;;;;;;;;32.33;30.33;;;;;;;;4920746;28;47012;-66
2022/09/22 05:34:02;;;;;;;;;34.00;31.33;;;;;;;;4920847;28;45480;-66
2022/09/22 05:36:27;;;;;;;;;36.67;32.33;;;;;;;;4920991;28;45325;-66
2022/09/22 05:38:53;;;;;;;;;39.33;31.00;;;;;;;;4920837;28;45361;-66
2022/09/22 05:41:18;;;;;;;;;25.67;23.00;;;;;;;;4919982;28;45531;-66
2022/09/22 05:43:43;;;;;;;;;31.33;29.67;;;;;;;;4920861;28;45317;-66
2022/09/22 05:46:08;;;;;;;;;48.67;36.67;;;;;;;;4920634;28;45240;-66
2022/09/22 05:48:33;;;;;;;;;31.33;26.00;;;;;;;;4920943;28;45290;-66
2022/09/22 05:51:00;;;;;;;;;31.33;25.33;;;;;;;;4920342;28;46306;-66
2022/09/22 05:53:26;;;;;;;;;34.33;32.00;;;;;;;;4920199;28;45449;-66
2022/09/22 05:55:51;;;;;;;;;26.00;24.33;;;;;;;;4920576;28;45365;-67
2022/09/22 05:58:16;;;;;;;;;36.67;31.33;;;;;;;;4920380;28;45377;-66
2022/09/22 06:00:42;;;;;;;;;28.33;26.33;;;;;;;;4919639;28;46523;-66
2022/09/22 06:03:07;;;;;;;;;31.67;28.00;;;;;;;;4919731;28;45423;-66
2022/09/22 06:05:32;;;;;;;;;29.67;27.67;;;;;;;;4920136;28;45596;-66
2022/09/22 06:08:02;;;;;;;;;33.67;29.33;;;;;;;;4920711;28;45323;-66
2022/09/22 06:10:31;;;;;;;;;36.33;30.00;;;;;;;;4920122;28;45364;-66
2022/09/22 06:12:56;;;;;;;;;30.33;26.67;;;;;;;;4920079;28;45408;-66
2022/09/22 06:15:22;;;;;;;;;28.33;24.33;;;;;;;;4920498;28;45811;-66
2022/09/22 06:17:50;;;;;;;;;29.67;25.00;;;;;;;;4920501;28;45433;-66
2022/09/22 06:20:16;;;;;;;;;30.67;27.67;;;;;;;;4920205;28;45542;-65
2022/09/22 06:22:43;;;;;;;;;37.67;32.67;;;;;;;;4919656;28;45255;-66
2022/09/22 06:25:09;;;;;;;;;35.00;33.33;;;;;;;;4920080;28;45314;-66
2022/09/22 06:27:34;;;;;;;;;33.33;31.33;;;;;;;;4920422;28;45212;-66
2022/09/22 06:29:59;;;;;;;;;44.67;37.67;;;;;;;;4919674;28;46572;-66
2022/09/22 06:32:24;;;;;;;;;34.33;30.33;;;;;;;;4920050;28;45377;-66
2022/09/22 06:34:50;;;;;;;;;40.67;35.00;;;;;;;;4920194;28;45298;-66
2022/09/22 06:37:15;;;;;;;;;30.33;30.00;;;;;;;;4920284;28;45318;-66
2022/09/22 06:39:40;;;;;;;;;29.33;27.00;;;;;;;;4919912;28;45378;-66
2022/09/22 06:42:06;;;;;;;;;35.00;29.67;;;;;;;;4919766;28;45269;-65
2022/09/22 06:44:31;;;;;;;;;34.67;30.33;;;;;;;;4920223;28;45335;-66
2022/09/22 06:46:56;;;;;;;;;32.67;28.33;;;;;;;;4920036;28;45479;-66
2022/09/22 06:49:21;;;;;;;;;38.67;33.33;;;;;;;;4919443;28;46386;-66
2022/09/22 06:51:48;;;;;;;;;33.67;31.33;;;;;;;;4918968;28;45396;-66
2022/09/22 06:54:14;;;;;;;;;34.00;29.00;;;;;;;;4919792;28;45250;-66
2022/09/22 06:56:41;;;;;;;;;36.67;33.00;;;;;;;;4919947;28;45474;-66
2022/09/22 06:59:11;;;;;;;;;34.33;31.33;;;;;;;;4919251;28;47045;-70
2022/09/22 07:01:37;;;;;;;;;46.33;36.33;;;;;;;;4919325;28;45452;-64
2022/09/22 07:04:03;;;;;;;;;39.00;32.33;;;;;;;;4919882;28;45440;-63
2022/09/22 07:06:28;;;;;;;;;35.67;31.00;;;;;;;;4919382;28;45310;-68
2022/09/22 07:08:53;;;;;;;;;39.00;32.67;;;;;;;;4919365;28;45417;-68
2022/09/22 07:11:22;;;;;;;;;34.33;31.33;;;;;;;;4919510;28;46043;-68
2022/09/22 07:13:48;;;;;;;;;34.33;32.00;;;;;;;;4919352;28;45449;-68
2022/09/22 07:16:16;;;;;;;;;34.00;31.33;;;;;;;;4919826;28;45358;-68
2022/09/22 07:18:45;;;;;;;;;34.67;32.67;;;;;;;;4919170;28;45965;-68
2022/09/22 07:21:12;;;;;;;;;32.00;31.33;;;;;;;;4918932;28;45422;-68
2022/09/22 07:23:38;;;;;;;;;33.67;31.00;;;;;;;;4919175;28;45290;-68
2022/09/22 07:26:05;;;;;;;;;33.67;29.33;;;;;;;;4919224;28;45387;-68
2022/09/22 07:28:31;;;;;;;;;32.00;29.33;;;;;;;;4915155;28;47286;-68
2022/09/22 07:31:07;;;;;;;;;30.33;27.67;;;;;;;;4899252;28;45717;-69
2022/09/22 07:33:37;;;;;;;;;37.00;31.33;;;;;;;;4899697;29;45470;-68
2022/09/22 07:36:07;;;;;;;;;37.67;28.67;;;;;;;;4899767;29;45371;-68
2022/09/22 07:38:35;;;;;;;;;32.67;29.33;;;;;;;;4899952;29;47672;-68
2022/09/22 07:41:00;;;;;;;;;36.33;31.33;;;;;;;;4899881;29;45463;-68
2022/09/22 07:43:27;;;;;;;;;32.00;28.00;;;;;;;;4900086;29;45438;-68
2022/09/22 07:45:54;;;;;;;;;31.67;27.67;;;;;;;;4900290;29;45224;-68
2022/09/22 07:48:35;;;;;;;;;34.67;30.67;;;;;;;;4899947;29;46536;-68
2022/09/22 07:51:00;;;;;;;;;43.33;34.67;;;;;;;;4899922;29;45225;-69
2022/09/22 07:53:26;;;;;;;;;29.67;27.33;;;;;;;;4899809;29;45359;-68
2022/09/22 07:55:51;;;;;;;;;31.67;25.00;;;;;;;;4900185;29;45216;-68
2022/09/22 07:58:16;;;;;;;;;28.67;28.00;;;;;;;;4900122;29;45541;-68
2022/09/22 08:00:41;;;;;;;;;38.33;33.67;;;;;;;;4899783;29;45422;-68
2022/09/22 08:03:07;;;;;;;;;25.67;24.67;;;;;;;;4900474;29;45214;-68
2022/09/22 08:05:32;;;;;;;;;28.67;28.67;;;;;;;;4902624;29;45382;-68
2022/09/22 08:07:59;;;;;;;;;29.67;27.33;;;;;;;;4902578;29;45459;-68
2022/09/22 08:10:25;;;;;;;;;29.33;22.33;;;;;;;;4902965;29;45749;-68
2022/09/22 08:12:51;;;;;;;;;22.67;22.33;;;;;;;;4902309;29;45402;-68
2022/09/22 08:15:17;;;;;;;;;24.00;23.67;;;;;;;;4902917;29;45807;-68
2022/09/22 08:17:43;;;;;;;;;21.67;21.00;;;;;;;;4902482;29;45752;-68
2022/09/22 08:20:08;;;;;;;;;26.67;23.67;;;;;;;;4902664;29;45522;-68
2022/09/22 08:22:34;;;;;;;;;22.00;20.67;;;;;;;;4903030;28;45826;-68
2022/09/22 08:24:59;;;;;;;;;23.00;22.33;;;;;;;;4902849;29;45321;-68
2022/09/22 08:27:25;;;;;;;;;24.00;21.00;;;;;;;;4902628;29;46601;-68
2022/09/22 08:29:50;;;;;;;;;72.50;60.50;;;;;;;;4902637;28;45495;-68
2022/09/22 08:32:17;;;;;;;;;28.00;24.00;;;;;;;;4902693;29;45315;-68
2022/09/22 08:34:43;;;;;;;;;26.33;23.00;;;;;;;;4902985;29;45477;-68
2022/09/22 08:37:09;;;;;;;;;80.50;71.25;;;;;;;;4902165;29;45270;-68
2022/09/22 08:39:35;;;;;;;;;48.00;38.00;;;;;;;;4902098;29;45438;-68
2022/09/22 08:42:14;;;;;;;;;22.67;22.67;;;;;;;;4902579;29;45309;-69
2022/09/22 08:44:52;;;;;;;;;22.00;21.00;;;;;;;;4902464;29;45429;-68
2022/09/22 08:51:50;;;;;;;;;19.67;19.00;;;;;;;;4902268;29;45385;-68
2022/09/22 08:53:01;;;;;;;;;22.33;17.67;;;;;;;;4902391;29;45521;-69
2022/09/22 08:55:26;;;;;;;;;19.33;17.67;;;;;;;;4902449;29;45380;-69
2022/09/22 08:58:11;;;;;;;;;17.33;16.67;;;;;;;;4902433;29;46158;-69
2022/09/22 09:00:45;;;;;;;;;18.33;16.67;;;;;;;;4902230;29;45484;-69
2022/09/22 09:03:29;;;;;;;;;19.67;15.00;;;;;;;;4902268;29;45441;-68
2022/09/22 09:05:59;;;;;;;;;13.67;13.67;;;;;;;;4902315;29;45190;-68
2022/09/22 09:08:33;;;;;;;;;17.67;15.00;;;;;;;;4901675;29;47276;-68
2022/09/22 09:11:05;;;;;;;;;18.33;16.67;;;;;;;;4902284;29;45362;-68
2022/09/22 09:13:31;;;;;;;;;15.33;15.33;;;;;;;;4899762;29;45521;-69
2022/09/22 09:16:03;;;;;;;;;15.33;14.33;;;;;;;;4899161;29;45771;-68
2022/09/22 09:18:32;;;;;;;;;20.00;14.00;;;;;;;;4901037;29;46646;-69
2022/09/22 09:20:59;;;;;;;;;16.00;15.00;;;;;;;;4901020;29;45420;-68
2022/09/22 09:23:29;;;;;;;;;26.33;25.00;;;;;;;;4912698;28;45403;-68
2022/09/22 09:25:55;;;;;;;;;17.67;17.33;;;;;;;;4921300;28;45234;-68
2022/09/22 09:28:20;;;;;;;;;20.00;16.33;;;;;;;;4920664;28;46537;-69
2022/09/22 09:30:45;;;;;;;;;15.67;12.00;;;;;;;;4921054;28;45329;-68
2022/09/22 09:33:32;;;;;;;;;16.33;15.00;;;;;;;;4920904;28;45443;-69
2022/09/22 09:35:58;;;;;;;;;15.33;15.33;;;;;;;;4920939;28;45303;-69
2022/09/22 09:38:27;;;;;;;;;13.00;11.67;;;;;;;;4920576;28;45444;-69
2022/09/22 09:40:57;;;;;;;;;13.33;10.67;;;;;;;;4920537;28;45456;-68
2022/09/22 09:43:23;;;;;;;;;10.00;9.67;;;;;;;;4920594;28;45419;-69
2022/09/22 09:46:22;;;;;;;;;11.00;9.00;;;;;;;;4920997;28;45521;-69
2022/09/22 09:49:04;;;;;;;;;10.33;10.33;;;;;;;;4861604;29;46220;-68
2022/09/22 09:51:32;;;;;;;;;13.67;12.00;;;;;;;;4861553;29;45408;-68
2022/09/22 09:54:00;;;;;;;;;11.33;9.00;;;;;;;;4861630;29;45347;-69
2022/09/22 09:56:27;;;;;;;;;17.00;13.33;;;;;;;;4861322;29;45502;-69
2022/09/22 10:01:44;;;;;;;;;5.33;5.33;;;;;;;;4861868;29;45340;-69
2022/09/22 10:04:28;;;;;;;;;5.33;5.33;;;;;;;;4861707;29;45350;-68
2022/09/22 10:06:53;;;;;;;;;4.33;4.33;;;;;;;;4861698;29;45298;-69
2022/09/22 10:09:23;;;;;;;;;3.67;3.67;;;;;;;;4861272;29;45440;-69
2022/09/22 10:12:02;;;;;;;;;6.00;6.00;;;;;;;;4861422;29;45417;-69
2022/09/22 10:14:31;;;;;;;;;6.00;6.00;;;;;;;;4861544;29;45467;-68
2022/09/22 10:16:56;;;;;;;;;8.00;6.33;;;;;;;;4861572;29;45583;-67
2022/09/22 10:19:29;;;;;;;;;6.67;6.67;;;;;;;;4861516;29;45468;-68
2022/09/22 10:22:29;;;;;;;;;5.33;5.33;;;;;;;;4861378;29;45291;-68
2022/09/22 10:25:02;;;;;;;;;4.00;3.00;;;;;;;;4846154;29;45462;-68
2022/09/22 10:27:28;;;;;;;;;9.67;7.00;;;;;;;;4861156;29;45495;-69
2022/09/22 10:30:09;;;;;;;;;4.00;4.00;;;;;;;;4861270;29;46531;-68
2022/09/22 10:32:35;;;;;;;;;7.00;7.00;;;;;;;;4861145;29;45315;-69
2022/09/22 10:35:20;;;;;;;;;5.33;5.33;;;;;;;;4861431;29;45441;-70
2022/09/22 10:37:46;;;;;;;;;7.67;6.33;;;;;;;;4861602;29;45399;-69
2022/09/22 10:40:13;;;;;;;;;5.00;4.67;;;;;;;;4860781;29;46785;-69
2022/09/22 10:42:44;;;;;;;;;6.33;4.00;;;;;;;;4861293;29;45430;-69
2022/09/22 10:45:11;;;;;;;;;8.67;7.00;;;;;;;;4860866;29;45337;-70
2022/09/22 10:47:39;;;;;;;;;4.33;4.33;;;;;;;;4861454;29;45889;-70
2022/09/22 10:50:23;;;;;;;;;4.33;4.33;;;;;;;;4861040;29;45428;-69
2022/09/22 10:52:54;;;;;;;;;6.67;4.33;;;;;;;;4860923;29;45445;-69
2022/09/22 10:55:22;;;;;;;;;9.00;9.00;;;;;;;;4860932;29;45466;-69
2022/09/22 10:57:57;;;;;;;;;6.67;6.00;;;;;;;;4863259;28;45481;-69
2022/09/22 11:00:24;;;;;;;;;7.00;7.00;;;;;;;;4919624;28;47303;-70
2022/09/22 11:02:50;;;;;;;;;4.67;4.67;;;;;;;;4919457;28;45449;-69
2022/09/22 11:05:15;;;;;;;;;9.00;6.00;;;;;;;;4919652;28;45735;-68
2022/09/22 11:13:52;;;;;;;;;4.67;4.67;;;;;;;;4919620;28;45392;-68
2022/09/22 11:16:46;;;;;;;;;10.33;9.00;;;;;;;;4919727;28;45287;-68
2022/09/22 11:19:29;;;;;;;;;4.00;4.00;;;;;;;;4919833;28;45358;-69
2022/09/22 11:21:56;;;;;;;;;10.00;10.00;;;;;;;;4919338;28;47508;-68
2022/09/22 11:24:36;;;;;;;;;5.00;5.00;;;;;;;;4919009;28;45258;-68
2022/09/22 11:27:02;;;;;;;;;4.33;4.33;;;;;;;;4919526;28;45302;-69
2022/09/22 11:29:40;;;;;;;;;6.33;5.00;;;;;;;;4919803;28;45326;-69
2022/09/22 11:32:24;;;;;;;;;3.33;3.33;;;;;;;;4918446;28;46419;-69
2022/09/22 11:34:55;;;;;;;;;5.33;3.00;;;;;;;;4918577;28;45263;-70
2022/09/22 11:37:26;;;;;;;;;3.00;3.00;;;;;;;;4919332;28;45364;-68
2022/09/22 11:40:10;;;;;;;;;5.00;4.00;;;;;;;;4922596;28;45365;-69
2022/09/22 11:42:55;;;;;;;;;4.67;4.00;;;;;;;;4922441;28;46713;-69
2022/09/22 11:45:42;;;;;;;;;6.00;2.67;;;;;;;;4863465;29;45498;-68
2022/09/22 11:48:26;;;;;;;;;4.00;4.00;;;;;;;;4863845;29;45575;-69
2022/09/22 11:50:58;;;;;;;;;5.00;3.00;;;;;;;;4863864;29;45589;-69
2022/09/22 11:53:42;;;;;;;;;3.00;3.00;;;;;;;;4863562;29;46292;-69
2022/09/22 11:56:30;;;;;;;;;4.00;3.00;;;;;;;;4863289;29;45424;-69
2022/09/22 11:58:58;;;;;;;;;3.00;3.00;;;;;;;;4863416;29;45491;-68
2022/09/22 12:01:28;;;;;;;;;4.33;1.67;;;;;;;;4863562;29;45606;-68
2022/09/22 12:04:14;;;;;;;;;6.67;2.67;;;;;;;;4863349;29;46132;-69
2022/09/22 12:06:41;;;;;;;;;2.00;2.00;;;;;;;;4863474;29;45484;-69
2022/09/22 12:09:33;;;;;;;;;2.00;2.00;;;;;;;;4863288;29;45628;-69
2022/09/22 12:12:01;;;;;;;;;1.00;1.00;;;;;;;;4860723;29;45327;-69
2022/09/22 12:14:26;;;;;;;;;0.00;0.00;;;;;;;;4863194;29;46469;-69
2022/09/22 12:17:09;;;;;;;;;3.33;2.33;;;;;;;;4863387;29;45243;-69
2022/09/22 12:19:54;;;;;;;;;4.00;2.00;;;;;;;;4863555;29;45900;-69
2022/09/22 12:22:26;;;;;;;;;3.67;2.33;;;;;;;;4832130;29;45526;-69
2022/09/22 12:24:51;;;;;;;;;3.00;3.00;;;;;;;;4862766;29;45509;-68
2022/09/22 12:27:19;;;;;;;;;6.33;2.00;;;;;;;;4863149;29;46023;-67
2022/09/22 12:29:52;;;;;;;;;2.00;2.00;;;;;;;;4863341;29;45412;-68
2022/09/22 12:32:28;;;;;;;;;4.00;4.00;;;;;;;;4863230;29;45542;-68
2022/09/22 12:34:56;;;;;;;;;3.00;3.00;;;;;;;;4862867;29;46596;-68
2022/09/22 12:37:28;;;;;;;;;2.67;2.67;;;;;;;;4863110;29;45300;-69
2022/09/22 12:39:55;;;;;;;;;3.00;3.00;;;;;;;;4863032;29;45496;-68
2022/09/22 12:42:20;;;;;;;;;1.00;1.00;;;;;;;;4863304;29;45333;-69
2022/09/22 12:44:48;;;;;;;;;3.67;3.00;;;;;;;;4862988;29;45542;-69
2022/09/22 12:47:18;;;;;;;;;3.33;1.33;;;;;;;;4862747;29;45296;-69
2022/09/22 12:49:51;;;;;;;;;2.67;2.00;;;;;;;;4861965;29;45624;-68
2022/09/22 12:52:35;;;;;;;;;1.33;1.00;;;;;;;;4863100;29;45548;-68
2022/09/22 12:55:20;;;;;;;;;5.00;2.00;;;;;;;;4862455;29;45421;-69
2022/09/22 12:57:49;;;;;;;;;2.00;2.00;;;;;;;;4862669;29;45383;-68
2022/09/22 13:00:19;;;;;;;;;2.00;2.00;;;;;;;;4911865;28;45330;-68
2022/09/22 13:02:46;;;;;;;;;4.67;3.00;;;;;;;;4921578;28;45647;-69
2022/09/22 13:05:23;;;;;;;;;1.67;1.67;;;;;;;;4921307;28;47416;-68
2022/09/22 13:07:49;;;;;;;;;2.33;2.00;;;;;;;;4921380;28;45316;-69
2022/09/22 13:13:01;;;;;;;;;4.00;3.00;;;;;;;;4921489;28;45329;-69
2022/09/22 13:15:50;;;;;;;;;3.67;3.00;;;;;;;;4921257;28;45401;-69
2022/09/22 13:18:34;;;;;;;;;3.00;3.00;;;;;;;;4862411;29;45397;-69
2022/09/22 13:21:21;;;;;;;;;2.00;2.00;;;;;;;;4862303;29;45470;-69
2022/09/22 13:23:52;;;;;;;;;3.00;3.00;;;;;;;;4862294;29;45427;-69
2022/09/22 13:26:19;;;;;;;;;2.00;2.00;;;;;;;;4861859;29;45483;-69
2022/09/22 13:28:57;;;;;;;;;1.00;1.00;;;;;;;;4862324;29;45477;-69
2022/09/22 13:31:22;;;;;;;;;3.00;3.00;;;;;;;;4862375;29;45436;-68
2022/09/22 13:33:47;;;;;;;;;1.33;1.33;;;;;;;;4862268;29;45494;-69
2022/09/22 13:36:15;;;;;;;;;4.67;3.00;;;;;;;;4862319;29;46188;-69
2022/09/22 13:38:49;;;;;;;;;1.00;1.00;;;;;;;;4862093;29;45305;-69
2022/09/22 13:41:22;;;;;;;;;1.00;1.00;;;;;;;;4861980;29;45649;-69
2022/09/22 13:43:49;;;;;;;;;1.67;1.67;;;;;;;;4862329;29;45430;-69
2022/09/22 13:46:33;;;;;;;;;1.67;1.67;;;;;;;;4861637;29;46738;-68
2022/09/22 13:48:58;;;;;;;;;3.00;2.00;;;;;;;;4861921;29;45552;-69
2022/09/22 13:51:25;;;;;;;;;2.00;2.00;;;;;;;;4862228;29;45469;-69
2022/09/22 13:53:52;;;;;;;;;1.33;1.33;;;;;;;;4862271;29;45334;-68
2022/09/22 13:56:18;;;;;;;;;1.67;1.67;;;;;;;;4915779;28;46310;-68
2022/09/22 13:58:44;;;;;;;;;3.00;2.00;;;;;;;;4920633;28;45210;-68
2022/09/22 14:01:18;;;;;;;;;4.00;4.00;;;;;;;;4920366;28;45318;-69
2022/09/22 14:03:44;;;;;;;;;1.33;1.33;;;;;;;;4920750;28;45398;-69
2022/09/22 14:06:11;;;;;;;;;1.00;1.00;;;;;;;;4920462;28;46027;-69
2022/09/22 14:08:37;;;;;;;;;3.33;1.33;;;;;;;;4920355;28;45447;-68
2022/09/22 14:11:03;;;;;;;;;2.00;2.00;;;;;;;;4920643;28;45720;-69
2022/09/22 14:13:39;;;;;;;;;3.33;1.33;;;;;;;;4920850;28;45426;-68
2022/09/22 14:16:10;;;;;;;;;2.33;2.00;;;;;;;;4919381;28;46451;-68
2022/09/22 14:18:39;;;;;;;;;2.33;2.33;;;;;;;;4920168;28;45282;-68
2022/09/22 14:21:07;;;;;;;;;2.00;2.00;;;;;;;;4919400;28;45269;-68
2022/09/22 14:23:32;;;;;;;;;1.00;1.00;;;;;;;;4920126;28;45345;-70
2022/09/22 14:26:00;;;;;;;;;3.00;1.67;;;;;;;;4919759;28;47123;-69
2022/09/22 14:28:27;;;;;;;;;0.67;0.67;;;;;;;;4920276;28;45321;-69
2022/09/22 14:30:53;;;;;;;;;1.67;1.67;;;;;;;;4920245;28;45376;-70
2022/09/22 14:33:24;;;;;;;;;0.00;0.00;;;;;;;;4920458;28;45452;-69
2022/09/22 14:35:57;;;;;;;;;1.00;1.00;;;;;;;;4919946;28;47169;-69
2022/09/22 14:38:22;;;;;;;;;2.00;2.00;;;;;;;;4919289;28;45210;-69
2022/09/22 14:40:52;;;;;;;;;2.00;1.00;;;;;;;;4920167;28;45271;-69
2022/09/22 14:43:22;;;;;;;;;2.00;2.00;;;;;;;;4920188;28;45358;-69
2022/09/22 14:45:58;;;;;;;;;2.67;1.00;;;;;;;;4919348;28;46952;-69
2022/09/22 14:48:29;;;;;;;;;3.00;1.67;;;;;;;;4919872;28;45567;-69
2022/09/22 14:50:54;;;;;;;;;1.00;1.00;;;;;;;;4920174;28;45378;-69